createdAt,value
2019-03-31T00:00:50.731Z,10.90
2019-03-31T00:03:18.954Z,10.40
2019-03-31T00:05:47.206Z,10.33
2019-03-31T00:08:15.419Z,10.07
2019-03-31T00:10:43.630Z,10.33
2019-03-31T00:13:12.109Z,11.10
2019-03-31T00:15:40.593Z,10.40
2019-03-31T00:18:09.090Z,10.60
2019-03-31T00:20:37.205Z,10.40
2019-03-31T00:23:05.401Z,10.73
2019-03-31T00:25:34.192Z,10.63
2019-03-31T00:28:02.395Z,11.23
2019-03-31T00:30:31.121Z,10.97
2019-03-31T00:32:59.065Z,10.60
2019-03-31T00:35:27.254Z,10.57
2019-03-31T00:37:55.862Z,10.40
2019-03-31T00:40:24.464Z,10.33
2019-03-31T00:42:53.393Z,11.37
2019-03-31T00:45:21.293Z,10.23
2019-03-31T00:47:49.530Z,10.90
2019-03-31T00:50:17.989Z,10.70
2019-03-31T00:52:46.586Z,10.40
2019-03-31T00:55:15.020Z,9.70
2019-03-31T00:57:43.265Z,9.90
2019-03-31T01:00:13.786Z,9.87
2019-03-31T01:02:41.881Z,9.83
2019-03-31T01:05:10.032Z,10.10
2019-03-31T01:07:38.928Z,9.87
2019-03-31T01:10:08.745Z,9.60
2019-03-31T01:12:37.019Z,9.67
2019-03-31T01:15:07.947Z,9.33
2019-03-31T01:17:36.258Z,10.70
2019-03-31T01:20:04.455Z,10.10
2019-03-31T01:22:32.987Z,10.97
2019-03-31T01:25:01.370Z,11.50
2019-03-31T01:27:29.386Z,11.00
2019-03-31T01:29:57.631Z,10.90
2019-03-31T01:32:26.333Z,10.90
2019-03-31T01:34:54.722Z,11.30
2019-03-31T01:37:23.029Z,11.17
2019-03-31T01:39:51.517Z,11.30
2019-03-31T01:42:19.907Z,10.90
2019-03-31T01:44:48.262Z,11.30
2019-03-31T01:47:17.064Z,11.67
2019-03-31T01:49:45.252Z,11.50
2019-03-31T01:52:13.185Z,11.60
2019-03-31T01:54:41.479Z,11.10
2019-03-31T01:57:10.025Z,11.50
2019-03-31T01:59:38.025Z,11.37
2019-03-31T02:02:07.915Z,11.57
2019-03-31T02:04:35.902Z,11.80
2019-03-31T02:07:04.369Z,11.63
2019-03-31T02:09:32.541Z,11.33
2019-03-31T02:12:00.806Z,12.43
2019-03-31T02:14:29.298Z,12.00
2019-03-31T02:16:57.818Z,12.00
2019-03-31T02:19:26.086Z,12.77
2019-03-31T02:21:54.850Z,13.10
2019-03-31T02:24:23.496Z,13.13
2019-03-31T02:26:51.419Z,13.53
2019-03-31T02:29:19.408Z,12.77
2019-03-31T02:31:47.392Z,12.40
2019-03-31T02:34:15.613Z,13.50
2019-03-31T02:36:43.522Z,12.73
2019-03-31T02:39:11.453Z,13.70
2019-03-31T02:41:40.129Z,13.30
2019-03-31T02:44:08.061Z,13.70
2019-03-31T02:46:36.786Z,12.63
2019-03-31T02:49:04.785Z,13.40
2019-03-31T02:51:33.029Z,12.70
2019-03-31T02:54:01.322Z,11.97
2019-03-31T02:56:30.423Z,12.97
2019-03-31T02:59:00.316Z,12.60
2019-03-31T03:01:29.706Z,12.70
2019-03-31T03:03:58.154Z,12.20
2019-03-31T03:06:27.825Z,11.60
2019-03-31T03:08:56.834Z,11.50
2019-03-31T03:11:26.310Z,11.10
2019-03-31T03:13:56.304Z,11.17
2019-03-31T03:16:24.567Z,11.23
2019-03-31T03:18:53.540Z,11.40
2019-03-31T03:21:24.013Z,11.80
2019-03-31T03:23:51.860Z,12.23
2019-03-31T03:26:20.250Z,11.30
2019-03-31T03:28:48.501Z,11.30
2019-03-31T03:31:17.284Z,11.60
2019-03-31T03:33:45.695Z,11.60
2019-03-31T03:36:14.198Z,11.70
2019-03-31T03:38:43.002Z,12.27
2019-03-31T03:41:11.640Z,10.90
2019-03-31T03:43:54.130Z,10.93
2019-03-31T03:46:10.387Z,11.37
2019-03-31T03:48:38.555Z,11.30
2019-03-31T03:51:06.757Z,11.83
2019-03-31T03:53:35.003Z,11.50
2019-03-31T03:56:03.025Z,11.83
2019-03-31T03:58:30.957Z,12.40
2019-03-31T04:00:59.173Z,11.80
2019-03-31T04:03:30.653Z,13.00
2019-03-31T04:05:57.278Z,12.33
2019-03-31T04:08:25.193Z,11.90
2019-03-31T04:11:14.839Z,12.87
2019-03-31T04:13:42.838Z,12.27
2019-03-31T04:16:10.746Z,11.97
2019-03-31T04:18:39.061Z,13.10
2019-03-31T04:21:07.514Z,12.80
2019-03-31T04:23:35.707Z,12.03
2019-03-31T04:26:04.314Z,11.33
2019-03-31T04:28:32.582Z,11.90
2019-03-31T04:31:01.476Z,12.37
2019-03-31T04:33:48.318Z,11.90
2019-03-31T04:35:59.037Z,11.90
2019-03-31T04:38:27.359Z,11.37
2019-03-31T04:40:55.796Z,11.60
2019-03-31T04:43:23.974Z,11.57
2019-03-31T04:45:51.885Z,11.50
2019-03-31T04:48:20.126Z,12.40
2019-03-31T04:50:51.714Z,12.20
2019-03-31T04:53:18.584Z,11.43
2019-03-31T04:55:46.873Z,12.27
2019-03-31T04:58:15.066Z,11.40
2019-03-31T05:00:43.651Z,11.03
2019-03-31T05:03:13.118Z,12.37
2019-03-31T05:05:41.346Z,12.70
2019-03-31T05:08:09.598Z,12.20
2019-03-31T05:10:38.157Z,12.87
2019-03-31T05:13:06.667Z,12.77
2019-03-31T05:15:34.602Z,12.67
2019-03-31T05:18:03.117Z,12.73
2019-03-31T05:20:32.005Z,13.50
2019-03-31T05:23:00.401Z,13.13
2019-03-31T05:25:28.612Z,13.63
2019-03-31T05:27:57.278Z,12.33
2019-03-31T05:30:25.200Z,13.20
2019-03-31T05:32:53.372Z,12.50
2019-03-31T05:35:21.575Z,12.70
2019-03-31T05:37:51.078Z,13.40
2019-03-31T05:40:19.508Z,13.70
2019-03-31T05:42:48.033Z,12.60
2019-03-31T05:45:16.189Z,12.80
2019-03-31T05:47:44.453Z,12.70
2019-03-31T05:50:12.661Z,12.63
2019-03-31T05:52:40.586Z,12.70
2019-03-31T05:55:08.776Z,12.13
2019-03-31T05:57:36.989Z,11.73
2019-03-31T06:00:05.346Z,12.57
2019-03-31T06:02:34.015Z,13.30
2019-03-31T06:05:01.932Z,13.40
2019-03-31T06:07:30.187Z,12.97
2019-03-31T06:09:58.475Z,12.40
2019-03-31T06:12:26.438Z,13.60
2019-03-31T06:14:54.354Z,15.20
2019-03-31T06:17:22.549Z,15.17
2019-03-31T06:19:50.990Z,15.40
2019-03-31T06:22:19.533Z,16.03
2019-03-31T06:24:47.876Z,15.00
2019-03-31T06:27:16.018Z,13.83
2019-03-31T06:29:44.593Z,14.70
2019-03-31T06:32:12.818Z,14.27
2019-03-31T06:34:47.201Z,13.13
2019-03-31T06:37:11.117Z,13.77
2019-03-31T06:39:40.359Z,13.87
2019-03-31T06:42:09.130Z,13.90
2019-03-31T06:44:38.215Z,15.50
2019-03-31T06:47:07.007Z,14.50
2019-03-31T06:49:35.801Z,14.50
2019-03-31T06:52:03.802Z,13.90
2019-03-31T06:54:32.448Z,14.77
2019-03-31T06:57:00.735Z,14.77
2019-03-31T06:59:29.625Z,15.00
2019-03-31T07:01:57.884Z,15.30
2019-03-31T07:04:26.250Z,15.93
2019-03-31T07:06:54.455Z,16.17
2019-03-31T07:09:22.631Z,16.17
2019-03-31T07:11:50.577Z,15.43
2019-03-31T07:14:18.837Z,15.00
2019-03-31T07:16:46.780Z,16.07
2019-03-31T07:19:15.570Z,15.90
2019-03-31T07:21:44.138Z,15.30
2019-03-31T07:24:12.382Z,15.47
2019-03-31T07:26:40.314Z,16.50
2019-03-31T07:29:09.068Z,17.50
2019-03-31T07:31:37.626Z,16.30
2019-03-31T07:34:05.795Z,18.30
2019-03-31T07:36:34.277Z,17.50
2019-03-31T07:39:04.607Z,16.90
2019-03-31T07:41:33.422Z,17.90
2019-03-31T07:44:02.024Z,17.70
2019-03-31T07:46:30.329Z,17.97
2019-03-31T07:48:58.539Z,17.23
2019-03-31T07:51:26.470Z,17.70
2019-03-31T07:53:55.180Z,18.30
2019-03-31T07:56:23.429Z,17.13
2019-03-31T07:58:52.115Z,16.80
2019-03-31T08:01:20.396Z,18.83
2019-03-31T08:03:48.574Z,19.17
2019-03-31T08:06:16.493Z,21.20
2019-03-31T08:08:44.988Z,21.17
2019-03-31T08:11:13.194Z,21.50
2019-03-31T08:13:41.114Z,23.87
2019-03-31T08:16:09.323Z,28.20
2019-03-31T08:18:37.646Z,30.30
2019-03-31T08:21:06.452Z,27.40
2019-03-31T08:23:34.642Z,31.90
2019-03-31T08:26:02.906Z,30.17
2019-03-31T08:28:31.779Z,30.90
2019-03-31T08:30:59.961Z,31.63
2019-03-31T08:33:28.540Z,31.30
2019-03-31T08:35:56.711Z,33.03
2019-03-31T08:38:25.194Z,33.83
2019-03-31T08:40:53.805Z,23.40
2019-03-31T08:43:22.015Z,19.90
2019-03-31T08:45:50.526Z,20.27
2019-03-31T08:48:18.454Z,19.07
2019-03-31T08:50:46.642Z,21.30
2019-03-31T08:53:14.856Z,21.47
2019-03-31T08:55:42.906Z,22.43
2019-03-31T08:58:11.091Z,22.83
2019-03-31T09:01:07.322Z,24.03
2019-03-31T09:03:35.581Z,24.53
2019-03-31T09:06:04.065Z,23.07
2019-03-31T09:08:32.026Z,25.60
2019-03-31T09:11:00.279Z,24.20
2019-03-31T09:13:28.909Z,24.07
2019-03-31T09:15:56.849Z,26.13
2019-03-31T09:18:25.107Z,27.20
2019-03-31T09:20:53.350Z,26.53
2019-03-31T09:23:21.581Z,27.37
2019-03-31T09:25:50.086Z,29.33
2019-03-31T09:30:46.402Z,27.07
2019-03-31T09:33:14.671Z,27.87
2019-03-31T09:35:43.131Z,25.50
2019-03-31T09:38:11.429Z,25.57
2019-03-31T09:40:39.742Z,26.53
2019-03-31T09:43:08.053Z,26.90
2019-03-31T09:45:36.613Z,26.50
2019-03-31T09:48:04.842Z,25.87
2019-03-31T09:50:33.553Z,26.40
2019-03-31T09:53:03.672Z,27.63
2019-03-31T09:55:32.052Z,25.50
2019-03-31T09:58:00.236Z,25.50
2019-03-31T10:00:42.930Z,25.60
2019-03-31T10:03:10.865Z,24.83
2019-03-31T10:05:38.778Z,24.13
2019-03-31T10:08:06.977Z,24.47
2019-03-31T10:10:34.892Z,23.23
2019-03-31T10:13:03.226Z,24.77
2019-03-31T10:15:31.454Z,26.50
2019-03-31T10:17:59.747Z,26.37
2019-03-31T10:20:31.281Z,25.70
2019-03-31T10:22:57.967Z,26.77
2019-03-31T10:25:26.441Z,26.67
2019-03-31T10:27:54.993Z,26.60
2019-03-31T10:30:32.902Z,26.27
2019-03-31T10:33:01.413Z,26.47
2019-03-31T10:35:30.082Z,27.93
2019-03-31T10:37:58.009Z,27.23
2019-03-31T10:40:26.213Z,29.90
2019-03-31T10:42:54.705Z,29.20
2019-03-31T10:45:22.629Z,29.37
2019-03-31T10:47:51.466Z,30.47
2019-03-31T10:50:20.054Z,31.37
2019-03-31T10:52:47.961Z,29.80
2019-03-31T10:55:16.167Z,29.73
2019-03-31T10:57:44.086Z,30.60
2019-03-31T11:00:12.152Z,29.20
2019-03-31T11:02:40.620Z,29.60
2019-03-31T11:05:10.082Z,30.20
2019-03-31T11:07:38.661Z,30.90
2019-03-31T11:10:08.205Z,31.30
2019-03-31T11:12:36.629Z,32.70
2019-03-31T11:15:05.019Z,29.53
2019-03-31T11:17:33.509Z,32.20
2019-03-31T11:20:02.091Z,31.70
2019-03-31T11:22:34.919Z,32.53
2019-03-31T11:25:02.917Z,31.07
2019-03-31T11:27:31.535Z,29.47
2019-03-31T11:30:00.089Z,29.30
2019-03-31T11:32:28.786Z,29.80
2019-03-31T11:34:56.688Z,30.87
2019-03-31T11:37:25.507Z,29.57
2019-03-31T11:39:53.792Z,28.63
2019-03-31T11:42:22.017Z,28.20
2019-03-31T11:44:50.174Z,29.30
2019-03-31T11:47:18.105Z,30.00
2019-03-31T11:49:46.548Z,29.63
2019-03-31T11:52:14.809Z,28.47
2019-03-31T11:54:45.922Z,26.90
2019-03-31T11:57:17.366Z,28.67
2019-03-31T11:59:44.286Z,29.20
2019-03-31T12:02:26.033Z,28.17
2019-03-31T12:04:42.922Z,27.63
2019-03-31T12:07:11.159Z,28.03
2019-03-31T12:09:39.416Z,26.23
2019-03-31T12:12:07.724Z,27.43
2019-03-31T12:14:36.732Z,27.80
2019-03-31T12:17:05.290Z,28.20
2019-03-31T12:19:33.564Z,25.53
2019-03-31T12:22:02.314Z,27.00
2019-03-31T12:24:30.601Z,25.70
2019-03-31T12:26:59.109Z,26.83
2019-03-31T12:29:27.702Z,26.33
2019-03-31T12:31:55.941Z,26.20
2019-03-31T12:34:24.151Z,23.00
2019-03-31T12:36:52.433Z,24.30
2019-03-31T12:39:20.686Z,23.10
2019-03-31T12:41:49.357Z,23.50
2019-03-31T12:44:18.182Z,24.00
2019-03-31T12:46:46.116Z,22.10
2019-03-31T12:49:14.415Z,21.03
2019-03-31T12:51:42.633Z,20.97
2019-03-31T12:54:10.934Z,21.30
2019-03-31T12:56:39.126Z,20.00
2019-03-31T12:59:07.277Z,19.77
2019-03-31T13:01:35.671Z,19.23
2019-03-31T13:04:03.590Z,19.13
2019-03-31T13:06:32.122Z,19.00
2019-03-31T13:09:00.702Z,18.77
2019-03-31T13:11:28.909Z,19.30
2019-03-31T13:13:56.836Z,18.30
2019-03-31T13:16:25.087Z,18.07
2019-03-31T13:18:53.514Z,17.60
2019-03-31T13:21:21.961Z,17.07
2019-03-31T13:23:50.488Z,15.70
2019-03-31T13:26:19.215Z,16.23
2019-03-31T13:28:47.837Z,16.93
2019-03-31T13:31:16.610Z,18.87
2019-03-31T13:33:44.824Z,17.10
2019-03-31T13:36:13.084Z,16.87
2019-03-31T13:38:41.000Z,17.10
2019-03-31T13:41:08.929Z,17.00
2019-03-31T13:43:36.874Z,16.60
2019-03-31T13:46:05.091Z,15.73
2019-03-31T13:48:33.036Z,17.20
2019-03-31T13:51:01.458Z,15.10
2019-03-31T13:53:29.912Z,17.93
2019-03-31T13:55:58.100Z,15.40
2019-03-31T13:58:28.660Z,15.40
2019-03-31T14:00:57.558Z,15.23
2019-03-31T14:03:25.846Z,15.37
2019-03-31T14:05:55.957Z,16.13
2019-03-31T14:08:26.085Z,15.47
2019-03-31T14:10:54.165Z,15.10
2019-03-31T14:13:22.390Z,14.63
2019-03-31T14:15:50.698Z,14.50
2019-03-31T14:18:18.619Z,14.57
2019-03-31T14:20:46.637Z,15.50
2019-03-31T14:23:14.609Z,15.63
2019-03-31T14:25:42.522Z,15.00
2019-03-31T14:28:11.357Z,15.20
2019-03-31T14:30:39.561Z,14.30
2019-03-31T14:33:07.497Z,15.80
2019-03-31T14:35:38.087Z,15.53
2019-03-31T14:38:06.069Z,16.30
2019-03-31T14:40:34.416Z,16.23
2019-03-31T14:43:03.055Z,15.20
2019-03-31T14:45:32.117Z,15.30
2019-03-31T14:48:00.497Z,14.13
2019-03-31T14:50:32.389Z,15.33
2019-03-31T14:53:00.702Z,14.70
2019-03-31T14:55:29.223Z,14.10
2019-03-31T14:57:57.175Z,13.67
2019-03-31T15:00:25.240Z,14.67
2019-03-31T15:02:53.153Z,14.20
2019-03-31T15:05:21.070Z,14.23
2019-03-31T15:07:50.002Z,14.80
2019-03-31T15:10:17.912Z,14.50
2019-03-31T15:12:46.149Z,15.13
2019-03-31T15:15:14.405Z,14.83
2019-03-31T15:17:42.898Z,13.30
2019-03-31T15:20:11.464Z,13.77
2019-03-31T15:22:39.385Z,14.43
2019-03-31T15:25:08.441Z,14.57
2019-03-31T15:27:36.852Z,14.57
2019-03-31T15:30:05.090Z,13.90
2019-03-31T15:32:33.273Z,14.30
2019-03-31T15:35:01.758Z,15.07
2019-03-31T15:37:30.277Z,13.93
2019-03-31T15:39:58.200Z,15.60
2019-03-31T15:42:26.410Z,14.00
2019-03-31T15:44:54.583Z,14.00
2019-03-31T15:47:22.841Z,13.60
2019-03-31T15:49:51.157Z,13.67
2019-03-31T15:52:19.679Z,13.40
2019-03-31T15:54:48.393Z,13.27
2019-03-31T15:57:17.162Z,13.27
2019-03-31T15:59:53.628Z,13.40
2019-03-31T16:02:23.131Z,13.10
2019-03-31T16:04:51.297Z,12.23
2019-03-31T16:07:19.717Z,12.00
2019-03-31T16:09:47.886Z,11.30
2019-03-31T16:12:16.233Z,12.20
2019-03-31T16:14:44.400Z,11.83
2019-03-31T16:17:12.339Z,11.40
2019-03-31T16:19:40.280Z,12.17
2019-03-31T16:22:08.270Z,12.53
2019-03-31T16:24:42.723Z,10.73
2019-03-31T16:27:10.368Z,10.63
2019-03-31T16:29:38.017Z,10.30
2019-03-31T16:32:05.998Z,10.57
2019-03-31T16:34:34.030Z,9.87
2019-03-31T16:37:02.370Z,9.23
2019-03-31T16:39:37.456Z,9.63
2019-03-31T16:42:00.562Z,9.87
2019-03-31T16:44:28.572Z,10.13
2019-03-31T16:46:57.017Z,9.90
2019-03-31T16:49:24.950Z,9.47
2019-03-31T16:51:52.617Z,8.63
2019-03-31T16:54:20.598Z,9.03
2019-03-31T16:56:48.481Z,9.30
2019-03-31T16:59:16.765Z,9.10
2019-03-31T17:01:44.738Z,8.83
2019-03-31T17:04:12.633Z,8.63
2019-03-31T17:06:40.830Z,8.80
2019-03-31T17:09:08.578Z,8.80
2019-03-31T17:11:36.515Z,8.37
2019-03-31T17:14:04.621Z,8.43
2019-03-31T17:16:32.599Z,8.07
2019-03-31T17:19:00.566Z,8.23
2019-03-31T17:21:28.492Z,7.70
2019-03-31T17:23:56.124Z,7.60
2019-03-31T17:26:24.042Z,7.77
2019-03-31T17:28:52.281Z,7.60
2019-03-31T17:31:20.265Z,7.47
2019-03-31T17:33:48.636Z,7.27
2019-03-31T17:36:16.530Z,7.00
2019-03-31T17:38:44.165Z,7.53
2019-03-31T17:41:11.817Z,7.40
2019-03-31T17:43:39.999Z,6.70
2019-03-31T17:46:08.478Z,7.43
2019-03-31T17:48:36.113Z,6.93
2019-03-31T17:51:04.482Z,7.30
2019-03-31T17:53:32.370Z,6.90
2019-03-31T17:56:00.017Z,6.77
2019-03-31T17:58:27.974Z,7.80
2019-03-31T18:00:56.507Z,7.23
2019-03-31T18:03:24.504Z,6.60
2019-03-31T18:05:52.410Z,7.07
2019-03-31T18:08:20.358Z,7.37
2019-03-31T18:10:48.529Z,6.80
2019-03-31T18:13:16.181Z,7.17
2019-03-31T18:15:43.834Z,8.20
2019-03-31T18:18:12.438Z,6.60
2019-03-31T18:20:40.353Z,6.70
2019-03-31T18:23:08.314Z,7.23
2019-03-31T18:25:36.670Z,7.10
2019-03-31T18:28:04.712Z,7.40
2019-03-31T18:30:32.642Z,7.33
2019-03-31T18:33:00.610Z,7.70
2019-03-31T18:35:28.529Z,7.10
2019-03-31T18:37:56.188Z,6.90
2019-03-31T18:40:34.302Z,6.93
2019-03-31T18:42:53.816Z,7.20
2019-03-31T18:45:21.726Z,6.90
2019-03-31T18:47:49.655Z,7.00
2019-03-31T18:50:17.317Z,7.07
2019-03-31T18:52:45.697Z,6.77
2019-03-31T18:55:23.558Z,6.90
2019-03-31T18:58:06.022Z,7.83
2019-03-31T19:00:55.931Z,6.93
2019-03-31T19:03:32.512Z,7.27
2019-03-31T19:06:22.663Z,6.57
2019-03-31T19:09:21.921Z,6.40
2019-03-31T19:12:08.972Z,7.07
2019-03-31T19:14:55.778Z,6.90
2019-03-31T19:17:54.677Z,5.70
2019-03-31T19:20:49.968Z,6.13
2019-03-31T19:23:42.772Z,7.73
2019-03-31T19:26:28.473Z,7.63
2019-03-31T19:29:16.967Z,6.70
2019-03-31T19:32:10.406Z,6.10
2019-03-31T19:34:57.477Z,6.80
2019-03-31T19:37:37.122Z,5.77
2019-03-31T19:40:13.686Z,5.77
2019-03-31T19:42:59.086Z,5.57
2019-03-31T19:45:46.169Z,5.63
2019-03-31T19:48:42.049Z,6.57
2019-03-31T19:51:40.958Z,6.23
2019-03-31T19:54:30.786Z,4.80
2019-03-31T19:57:12.140Z,5.30
2019-03-31T19:59:58.065Z,4.90
2019-03-31T20:02:47.844Z,5.70
2019-03-31T20:05:43.737Z,4.80
2019-03-31T20:08:33.300Z,5.40
2019-03-31T20:11:10.959Z,5.30
2019-03-31T20:14:13.076Z,4.97
2019-03-31T20:17:02.973Z,4.80
2019-03-31T20:19:52.646Z,4.77
2019-03-31T20:22:31.889Z,5.10
2019-03-31T20:25:17.883Z,5.00
2019-03-31T20:28:17.280Z,4.60
2019-03-31T20:31:13.007Z,5.10
2019-03-31T20:33:58.516Z,4.37
2019-03-31T20:36:41.396Z,4.43
2019-03-31T20:39:34.212Z,4.37
2019-03-31T20:42:11.751Z,4.20
2019-03-31T20:44:39.914Z,4.20
2019-03-31T20:47:07.974Z,4.57
2019-03-31T20:49:35.973Z,4.67
2019-03-31T20:52:03.633Z,4.40
2019-03-31T20:54:33.115Z,4.40
2019-03-31T20:57:01.021Z,4.50
2019-03-31T20:59:28.681Z,4.07
2019-03-31T21:01:56.905Z,4.00
2019-03-31T21:04:25.310Z,4.30
2019-03-31T21:06:52.937Z,4.00
2019-03-31T21:09:21.214Z,4.03
2019-03-31T21:11:49.113Z,4.20
2019-03-31T21:14:16.781Z,4.20
2019-03-31T21:16:44.770Z,4.30
2019-03-31T21:19:12.446Z,4.67
2019-03-31T21:21:40.079Z,3.90
2019-03-31T21:24:07.845Z,4.20
2019-03-31T21:26:35.829Z,4.37
2019-03-31T21:29:04.180Z,3.80
2019-03-31T21:31:32.764Z,3.77
2019-03-31T21:34:00.929Z,3.60
2019-03-31T21:36:28.819Z,4.30
2019-03-31T21:38:56.470Z,4.00
2019-03-31T21:41:24.384Z,4.03
2019-03-31T21:43:52.857Z,3.40
2019-03-31T21:46:21.153Z,3.77
2019-03-31T21:48:49.473Z,3.60
2019-03-31T21:51:17.490Z,3.30
2019-03-31T21:53:45.638Z,3.60
2019-03-31T21:56:13.939Z,3.80
2019-03-31T21:58:42.163Z,3.90
2019-03-31T22:01:09.898Z,3.73
2019-03-31T22:03:38.617Z,3.60
2019-03-31T22:06:07.128Z,3.80
2019-03-31T22:08:35.274Z,3.43
2019-03-31T22:11:02.925Z,3.60
2019-03-31T22:13:30.901Z,4.00
2019-03-31T22:15:58.841Z,3.30
2019-03-31T22:18:26.494Z,3.50
2019-03-31T22:20:54.152Z,3.50
2019-03-31T22:23:22.125Z,3.20
2019-03-31T22:25:50.184Z,3.60
2019-03-31T22:28:18.382Z,3.90
2019-03-31T22:30:46.074Z,3.23
2019-03-31T22:33:13.777Z,3.60
2019-03-31T22:35:43.333Z,3.10
2019-03-31T22:38:10.985Z,3.50
2019-03-31T22:40:38.990Z,3.70
2019-03-31T22:43:07.946Z,3.90
2019-03-31T22:45:35.771Z,3.10
2019-03-31T22:48:03.417Z,3.40
2019-03-31T22:50:31.881Z,3.20
2019-03-31T22:52:59.615Z,3.13
2019-03-31T22:55:28.172Z,3.33
2019-03-31T22:57:56.198Z,3.30
2019-03-31T23:00:26.482Z,3.40
2019-03-31T23:02:54.436Z,3.10
2019-03-31T23:05:22.213Z,3.10
2019-03-31T23:07:50.215Z,3.20
2019-03-31T23:10:18.134Z,3.40
2019-03-31T23:12:45.782Z,3.43
2019-03-31T23:15:13.492Z,3.57
2019-03-31T23:17:41.426Z,3.20
2019-03-31T23:20:09.388Z,3.10
2019-03-31T23:22:37.717Z,3.17
2019-03-31T23:25:05.945Z,3.00
2019-03-31T23:27:34.232Z,3.10
2019-03-31T23:30:02.329Z,3.40
2019-03-31T23:32:30.223Z,2.97
2019-03-31T23:34:58.167Z,3.17
2019-03-31T23:37:25.796Z,3.43
2019-03-31T23:39:53.969Z,3.37
2019-03-31T23:42:21.972Z,3.07
2019-03-31T23:44:49.701Z,3.40
2019-03-31T23:47:17.720Z,3.50
2019-03-31T23:49:46.011Z,3.20
2019-03-31T23:52:13.748Z,2.97
2019-03-31T23:54:41.812Z,3.23
2019-03-31T23:57:09.455Z,3.30
2019-03-31T23:59:37.487Z,3.00
